sensor_id;sensor_type;location;lat;lon;timestamp;temperature;humidity
29803;DHT22;16702;50.898;4.662;2022-11-15T00:01:19;11.70;99.90
29803;DHT22;16702;50.898;4.662;2022-11-15T00:04:08;11.70;99.90
29803;DHT22;16702;50.898;4.662;2022-11-15T00:06:58;11.70;99.90
29803;DHT22;16702;50.898;4.662;2022-11-15T00:09:47;11.80;99.90
29803;DHT22;16702;50.898;4.662;2022-11-15T00:12:36;11.80;99.90
29803;DHT22;16702;50.898;4.662;2022-11-15T00:15:28;11.80;99.90
29803;DHT22;16702;50.898;4.662;2022-11-15T00:18:17;11.80;99.90
29803;DHT22;16702;50.898;4.662;2022-11-15T00:21:09;11.80;99.90
29803;DHT22;16702;50.898;4.662;2022-11-15T00:23:58;11.80;99.90
29803;DHT22;16702;50.898;4.662;2022-11-15T00:26:47;11.80;99.90
29803;DHT22;16702;50.898;4.662;2022-11-15T00:29:36;11.90;99.90
29803;DHT22;16702;50.898;4.662;2022-11-15T00:32:33;11.90;99.90
29803;DHT22;16702;50.898;4.662;2022-11-15T00:35:22;11.90;99.90
29803;DHT22;16702;50.898;4.662;2022-11-15T00:38:11;11.90;99.90
29803;DHT22;16702;50.898;4.662;2022-11-15T00:41:01;11.90;99.90
29803;DHT22;16702;50.898;4.662;2022-11-15T00:43:54;11.90;99.90
29803;DHT22;16702;50.898;4.662;2022-11-15T00:46:43;11.90;99.90
29803;DHT22;16702;50.898;4.662;2022-11-15T00:49:35;12.00;99.90
29803;DHT22;16702;50.898;4.662;2022-11-15T00:52:24;12.00;99.90
29803;DHT22;16702;50.898;4.662;2022-11-15T00:55:14;12.00;99.90
29803;DHT22;16702;50.898;4.662;2022-11-15T00:58:03;12.00;99.90
29803;DHT22;16702;50.898;4.662;2022-11-15T01:00:52;12.10;99.90
29803;DHT22;16702;50.898;4.662;2022-11-15T01:03:42;12.10;99.90
29803;DHT22;16702;50.898;4.662;2022-11-15T01:06:33;12.10;99.90
29803;DHT22;16702;50.898;4.662;2022-11-15T01:09:22;12.10;99.90
29803;DHT22;16702;50.898;4.662;2022-11-15T01:12:11;12.10;99.90
29803;DHT22;16702;50.898;4.662;2022-11-15T01:15:00;12.20;99.90
29803;DHT22;16702;50.898;4.662;2022-11-15T01:17:49;12.10;99.90
29803;DHT22;16702;50.898;4.662;2022-11-15T01:20:40;12.20;99.90
29803;DHT22;16702;50.898;4.662;2022-11-15T01:23:32;12.20;99.90
29803;DHT22;16702;50.898;4.662;2022-11-15T01:26:21;12.20;99.90
29803;DHT22;16702;50.898;4.662;2022-11-15T01:29:10;12.20;99.90
29803;DHT22;16702;50.898;4.662;2022-11-15T01:31:59;12.20;99.90
29803;DHT22;16702;50.898;4.662;2022-11-15T01:34:48;12.30;99.90
29803;DHT22;16702;50.898;4.662;2022-11-15T01:37:37;12.20;99.90
29803;DHT22;16702;50.898;4.662;2022-11-15T01:40:29;12.30;99.90
29803;DHT22;16702;50.898;4.662;2022-11-15T01:43:22;12.30;99.90
29803;DHT22;16702;50.898;4.662;2022-11-15T01:46:27;12.30;99.90
29803;DHT22;16702;50.898;4.662;2022-11-15T01:49:21;12.30;99.90
29803;DHT22;16702;50.898;4.662;2022-11-15T01:52:12;12.30;99.90
29803;DHT22;16702;50.898;4.662;2022-11-15T01:55:04;12.30;99.90
29803;DHT22;16702;50.898;4.662;2022-11-15T01:57:59;12.40;99.90
29803;DHT22;16702;50.898;4.662;2022-11-15T02:00:50;12.40;99.90
29803;DHT22;16702;50.898;4.662;2022-11-15T02:03:44;12.40;99.90
29803;DHT22;16702;50.898;4.662;2022-11-15T02:06:36;12.40;99.90
29803;DHT22;16702;50.898;4.662;2022-11-15T02:09:25;12.40;99.90
29803;DHT22;16702;50.898;4.662;2022-11-15T02:12:15;12.50;99.90
29803;DHT22;16702;50.898;4.662;2022-11-15T02:15:09;12.50;99.90
29803;DHT22;16702;50.898;4.662;2022-11-15T02:18:07;12.50;99.90
29803;DHT22;16702;50.898;4.662;2022-11-15T02:21:06;12.50;99.90
29803;DHT22;16702;50.898;4.662;2022-11-15T02:24:25;12.50;99.90
29803;DHT22;16702;50.898;4.662;2022-11-15T02:27:42;12.50;99.90
29803;DHT22;16702;50.898;4.662;2022-11-15T02:30:41;12.50;99.90
29803;DHT22;16702;50.898;4.662;2022-11-15T02:33:38;12.50;99.90
29803;DHT22;16702;50.898;4.662;2022-11-15T02:36:36;12.50;99.90
29803;DHT22;16702;50.898;4.662;2022-11-15T02:39:34;12.60;99.90
29803;DHT22;16702;50.898;4.662;2022-11-15T02:42:26;12.50;99.90
29803;DHT22;16702;50.898;4.662;2022-11-15T02:45:31;12.50;99.90
29803;DHT22;16702;50.898;4.662;2022-11-15T02:48:24;12.50;99.90
29803;DHT22;16702;50.898;4.662;2022-11-15T02:51:15;12.50;99.90
29803;DHT22;16702;50.898;4.662;2022-11-15T02:54:04;12.50;99.90
29803;DHT22;16702;50.898;4.662;2022-11-15T02:56:56;12.50;99.90
29803;DHT22;16702;50.898;4.662;2022-11-15T03:00:00;12.60;99.90
29803;DHT22;16702;50.898;4.662;2022-11-15T03:03:13;12.60;99.90
29803;DHT22;16702;50.898;4.662;2022-11-15T03:06:15;12.60;99.90
29803;DHT22;16702;50.898;4.662;2022-11-15T03:09:12;12.60;99.90
29803;DHT22;16702;50.898;4.662;2022-11-15T03:12:08;12.60;99.90
29803;DHT22;16702;50.898;4.662;2022-11-15T03:15:03;12.60;99.90
29803;DHT22;16702;50.898;4.662;2022-11-15T03:17:57;12.60;99.90
29803;DHT22;16702;50.898;4.662;2022-11-15T03:20:48;12.60;99.90
29803;DHT22;16702;50.898;4.662;2022-11-15T03:23:40;12.60;99.90
29803;DHT22;16702;50.898;4.662;2022-11-15T03:26:30;12.70;99.90
29803;DHT22;16702;50.898;4.662;2022-11-15T03:29:22;12.70;99.90
29803;DHT22;16702;50.898;4.662;2022-11-15T03:32:17;12.60;99.90
29803;DHT22;16702;50.898;4.662;2022-11-15T03:35:09;12.70;99.90
29803;DHT22;16702;50.898;4.662;2022-11-15T03:38:06;12.60;99.90
29803;DHT22;16702;50.898;4.662;2022-11-15T03:41:01;12.70;99.90
29803;DHT22;16702;50.898;4.662;2022-11-15T03:43:56;12.70;99.90
29803;DHT22;16702;50.898;4.662;2022-11-15T03:46:49;12.70;99.90
29803;DHT22;16702;50.898;4.662;2022-11-15T03:49:45;12.70;99.90
29803;DHT22;16702;50.898;4.662;2022-11-15T03:52:35;12.70;99.90
29803;DHT22;16702;50.898;4.662;2022-11-15T03:55:24;12.70;99.90
29803;DHT22;16702;50.898;4.662;2022-11-15T03:58:16;12.70;99.90
29803;DHT22;16702;50.898;4.662;2022-11-15T04:01:04;12.70;99.90
29803;DHT22;16702;50.898;4.662;2022-11-15T04:03:53;12.70;99.90
29803;DHT22;16702;50.898;4.662;2022-11-15T04:06:42;12.70;99.90
29803;DHT22;16702;50.898;4.662;2022-11-15T04:09:31;12.70;99.90
29803;DHT22;16702;50.898;4.662;2022-11-15T04:12:42;12.70;99.90
29803;DHT22;16702;50.898;4.662;2022-11-15T04:15:36;12.70;99.90
29803;DHT22;16702;50.898;4.662;2022-11-15T04:18:25;12.70;99.90
29803;DHT22;16702;50.898;4.662;2022-11-15T04:21:14;12.70;99.90
29803;DHT22;16702;50.898;4.662;2022-11-15T04:24:15;12.70;99.90
29803;DHT22;16702;50.898;4.662;2022-11-15T04:27:04;12.70;99.90
29803;DHT22;16702;50.898;4.662;2022-11-15T04:29:53;12.60;99.90
29803;DHT22;16702;50.898;4.662;2022-11-15T04:32:45;12.60;99.90
29803;DHT22;16702;50.898;4.662;2022-11-15T04:35:34;12.60;99.90
29803;DHT22;16702;50.898;4.662;2022-11-15T04:38:23;12.60;99.90
29803;DHT22;16702;50.898;4.662;2022-11-15T04:41:12;12.60;99.90
29803;DHT22;16702;50.898;4.662;2022-11-15T04:44:01;12.60;99.90
29803;DHT22;16702;50.898;4.662;2022-11-15T04:46:50;12.60;99.90
29803;DHT22;16702;50.898;4.662;2022-11-15T04:49:42;12.60;99.90
29803;DHT22;16702;50.898;4.662;2022-11-15T04:52:31;12.60;99.90
29803;DHT22;16702;50.898;4.662;2022-11-15T04:55:20;12.50;99.90
29803;DHT22;16702;50.898;4.662;2022-11-15T04:58:09;12.50;99.90
29803;DHT22;16702;50.898;4.662;2022-11-15T05:00:58;12.50;99.90
29803;DHT22;16702;50.898;4.662;2022-11-15T05:03:47;12.50;99.90
29803;DHT22;16702;50.898;4.662;2022-11-15T05:06:51;12.50;99.90
29803;DHT22;16702;50.898;4.662;2022-11-15T05:09:40;12.50;99.90
29803;DHT22;16702;50.898;4.662;2022-11-15T05:12:29;12.50;99.90
29803;DHT22;16702;50.898;4.662;2022-11-15T05:15:18;12.40;99.90
29803;DHT22;16702;50.898;4.662;2022-11-15T05:18:06;12.40;99.90
29803;DHT22;16702;50.898;4.662;2022-11-15T05:20:55;12.40;99.90
29803;DHT22;16702;50.898;4.662;2022-11-15T05:23:47;12.40;99.90
29803;DHT22;16702;50.898;4.662;2022-11-15T05:26:36;12.40;99.90
29803;DHT22;16702;50.898;4.662;2022-11-15T05:29:25;12.40;99.90
29803;DHT22;16702;50.898;4.662;2022-11-15T05:32:14;12.40;99.90
29803;DHT22;16702;50.898;4.662;2022-11-15T05:35:08;12.40;99.90
29803;DHT22;16702;50.898;4.662;2022-11-15T05:38:00;12.40;99.90
29803;DHT22;16702;50.898;4.662;2022-11-15T05:40:52;12.40;99.90
29803;DHT22;16702;50.898;4.662;2022-11-15T05:43:42;12.40;99.90
29803;DHT22;16702;50.898;4.662;2022-11-15T05:46:32;12.30;99.90
29803;DHT22;16702;50.898;4.662;2022-11-15T05:49:25;12.40;99.90
29803;DHT22;16702;50.898;4.662;2022-11-15T05:52:20;12.30;99.90
29803;DHT22;16702;50.898;4.662;2022-11-15T05:55:10;12.30;99.90
29803;DHT22;16702;50.898;4.662;2022-11-15T05:58:02;12.20;99.90
29803;DHT22;16702;50.898;4.662;2022-11-15T06:00:51;12.20;99.90
29803;DHT22;16702;50.898;4.662;2022-11-15T06:03:41;12.30;99.90
29803;DHT22;16702;50.898;4.662;2022-11-15T06:06:30;12.30;99.90
29803;DHT22;16702;50.898;4.662;2022-11-15T06:09:19;12.20;99.90
29803;DHT22;16702;50.898;4.662;2022-11-15T06:12:08;12.20;99.90
29803;DHT22;16702;50.898;4.662;2022-11-15T06:14:59;12.20;99.90
29803;DHT22;16702;50.898;4.662;2022-11-15T06:17:48;12.20;99.90
29803;DHT22;16702;50.898;4.662;2022-11-15T06:20:37;12.20;99.90
29803;DHT22;16702;50.898;4.662;2022-11-15T06:23:26;12.20;99.90
29803;DHT22;16702;50.898;4.662;2022-11-15T06:26:15;12.10;99.90
29803;DHT22;16702;50.898;4.662;2022-11-15T06:29:04;12.10;99.90
29803;DHT22;16702;50.898;4.662;2022-11-15T06:31:56;12.10;99.90
29803;DHT22;16702;50.898;4.662;2022-11-15T06:34:44;12.10;99.90
29803;DHT22;16702;50.898;4.662;2022-11-15T06:37:33;12.10;99.90
29803;DHT22;16702;50.898;4.662;2022-11-15T06:40:22;12.10;99.90
29803;DHT22;16702;50.898;4.662;2022-11-15T06:43:12;12.00;99.90
29803;DHT22;16702;50.898;4.662;2022-11-15T06:46:01;12.00;99.90
29803;DHT22;16702;50.898;4.662;2022-11-15T06:48:53;12.00;99.90
29803;DHT22;16702;50.898;4.662;2022-11-15T06:51:42;12.00;99.90
29803;DHT22;16702;50.898;4.662;2022-11-15T06:54:31;11.90;99.90
29803;DHT22;16702;50.898;4.662;2022-11-15T06:57:22;11.90;99.90
29803;DHT22;16702;50.898;4.662;2022-11-15T07:00:13;11.90;99.90
29803;DHT22;16702;50.898;4.662;2022-11-15T07:03:02;11.90;99.90
29803;DHT22;16702;50.898;4.662;2022-11-15T07:05:55;11.80;99.90
29803;DHT22;16702;50.898;4.662;2022-11-15T07:08:51;11.80;99.90
29803;DHT22;16702;50.898;4.662;2022-11-15T07:11:40;11.80;99.90
29803;DHT22;16702;50.898;4.662;2022-11-15T07:14:30;11.80;99.90
29803;DHT22;16702;50.898;4.662;2022-11-15T07:17:19;11.80;99.90
29803;DHT22;16702;50.898;4.662;2022-11-15T07:20:09;11.70;99.90
29803;DHT22;16702;50.898;4.662;2022-11-15T07:23:04;11.70;99.90
29803;DHT22;16702;50.898;4.662;2022-11-15T07:25:52;11.70;99.90
29803;DHT22;16702;50.898;4.662;2022-11-15T07:28:41;11.70;99.90
29803;DHT22;16702;50.898;4.662;2022-11-15T07:31:30;11.70;99.90
29803;DHT22;16702;50.898;4.662;2022-11-15T07:34:19;11.70;99.90
29803;DHT22;16702;50.898;4.662;2022-11-15T07:37:09;11.70;99.90
29803;DHT22;16702;50.898;4.662;2022-11-15T07:40:01;11.60;99.90
29803;DHT22;16702;50.898;4.662;2022-11-15T07:42:50;11.60;99.90
29803;DHT22;16702;50.898;4.662;2022-11-15T07:45:43;11.60;99.90
29803;DHT22;16702;50.898;4.662;2022-11-15T07:48:33;11.60;99.90
29803;DHT22;16702;50.898;4.662;2022-11-15T07:51:29;11.60;99.90
29803;DHT22;16702;50.898;4.662;2022-11-15T07:54:18;11.60;99.90
29803;DHT22;16702;50.898;4.662;2022-11-15T07:57:10;11.60;99.90
29803;DHT22;16702;50.898;4.662;2022-11-15T07:59:59;11.60;99.90
29803;DHT22;16702;50.898;4.662;2022-11-15T08:02:47;11.60;99.90
29803;DHT22;16702;50.898;4.662;2022-11-15T08:05:38;11.50;99.90
29803;DHT22;16702;50.898;4.662;2022-11-15T08:08:27;11.60;99.90
29803;DHT22;16702;50.898;4.662;2022-11-15T08:11:16;11.50;99.90
29803;DHT22;16702;50.898;4.662;2022-11-15T08:14:08;11.50;99.90
29803;DHT22;16702;50.898;4.662;2022-11-15T08:16:57;11.50;99.90
29803;DHT22;16702;50.898;4.662;2022-11-15T08:19:46;11.50;99.90
29803;DHT22;16702;50.898;4.662;2022-11-15T08:22:35;11.50;99.90
29803;DHT22;16702;50.898;4.662;2022-11-15T08:25:25;11.50;99.90
29803;DHT22;16702;50.898;4.662;2022-11-15T08:28:16;11.50;99.90
29803;DHT22;16702;50.898;4.662;2022-11-15T08:31:14;11.50;99.90
29803;DHT22;16702;50.898;4.662;2022-11-15T08:34:03;11.50;99.90
29803;DHT22;16702;50.898;4.662;2022-11-15T08:36:52;11.50;99.90
29803;DHT22;16702;50.898;4.662;2022-11-15T08:39:41;11.50;99.90
29803;DHT22;16702;50.898;4.662;2022-11-15T08:42:30;11.50;99.90
29803;DHT22;16702;50.898;4.662;2022-11-15T08:45:20;11.50;99.90
29803;DHT22;16702;50.898;4.662;2022-11-15T08:48:11;11.50;99.90
29803;DHT22;16702;50.898;4.662;2022-11-15T08:51:00;11.50;99.90
29803;DHT22;16702;50.898;4.662;2022-11-15T08:53:49;11.50;99.90
29803;DHT22;16702;50.898;4.662;2022-11-15T08:56:38;11.50;99.90
29803;DHT22;16702;50.898;4.662;2022-11-15T08:59:27;11.50;99.90
29803;DHT22;16702;50.898;4.662;2022-11-15T09:02:17;11.60;99.90
29803;DHT22;16702;50.898;4.662;2022-11-15T09:05:09;11.60;99.90
29803;DHT22;16702;50.898;4.662;2022-11-15T09:07:58;11.50;99.90
29803;DHT22;16702;50.898;4.662;2022-11-15T09:11:08;11.60;99.90
29803;DHT22;16702;50.898;4.662;2022-11-15T09:13:58;11.60;99.90
29803;DHT22;16702;50.898;4.662;2022-11-15T09:16:47;11.50;99.90
29803;DHT22;16702;50.898;4.662;2022-11-15T09:19:36;11.60;99.90
29803;DHT22;16702;50.898;4.662;2022-11-15T09:22:28;11.70;99.90
29803;DHT22;16702;50.898;4.662;2022-11-15T09:25:17;11.60;99.90
29803;DHT22;16702;50.898;4.662;2022-11-15T09:28:08;11.70;99.90
29803;DHT22;16702;50.898;4.662;2022-11-15T09:30:58;11.70;99.90
29803;DHT22;16702;50.898;4.662;2022-11-15T09:33:47;11.70;99.90
29803;DHT22;16702;50.898;4.662;2022-11-15T09:36:37;11.80;99.90
29803;DHT22;16702;50.898;4.662;2022-11-15T09:39:29;11.80;99.90
29803;DHT22;16702;50.898;4.662;2022-11-15T09:42:30;11.80;99.90
29803;DHT22;16702;50.898;4.662;2022-11-15T09:45:26;11.80;99.90
29803;DHT22;16702;50.898;4.662;2022-11-15T09:48:48;11.80;99.90
29803;DHT22;16702;50.898;4.662;2022-11-15T09:51:36;11.90;99.90
29803;DHT22;16702;50.898;4.662;2022-11-15T09:54:25;12.00;99.90
29803;DHT22;16702;50.898;4.662;2022-11-15T09:57:24;12.00;99.90
29803;DHT22;16702;50.898;4.662;2022-11-15T10:00:20;12.00;99.90
29803;DHT22;16702;50.898;4.662;2022-11-15T10:03:13;12.00;99.90
29803;DHT22;16702;50.898;4.662;2022-11-15T10:05:46;12.00;99.90
29803;DHT22;16702;50.898;4.662;2022-11-15T10:08:43;12.10;99.90
29803;DHT22;16702;50.898;4.662;2022-11-15T10:11:19;12.10;99.90
29803;DHT22;16702;50.898;4.662;2022-11-15T10:14:11;12.10;99.90
29803;DHT22;16702;50.898;4.662;2022-11-15T10:17:04;12.10;99.90
29803;DHT22;16702;50.898;4.662;2022-11-15T10:19:42;12.10;99.90
29803;DHT22;16702;50.898;4.662;2022-11-15T10:22:25;12.20;99.90
29803;DHT22;16702;50.898;4.662;2022-11-15T10:25:17;12.20;99.90
29803;DHT22;16702;50.898;4.662;2022-11-15T10:27:57;12.30;99.90
29803;DHT22;16702;50.898;4.662;2022-11-15T10:30:37;12.30;99.90
29803;DHT22;16702;50.898;4.662;2022-11-15T10:33:17;12.30;99.90
29803;DHT22;16702;50.898;4.662;2022-11-15T10:36:20;12.30;99.90
29803;DHT22;16702;50.898;4.662;2022-11-15T10:38:56;12.30;99.90
29803;DHT22;16702;50.898;4.662;2022-11-15T10:41:32;12.50;99.90
29803;DHT22;16702;50.898;4.662;2022-11-15T10:44:31;12.50;99.90
29803;DHT22;16702;50.898;4.662;2022-11-15T10:47:25;12.50;99.90
29803;DHT22;16702;50.898;4.662;2022-11-15T10:50:05;12.50;99.90
29803;DHT22;16702;50.898;4.662;2022-11-15T10:52:37;12.50;99.90
29803;DHT22;16702;50.898;4.662;2022-11-15T10:55:24;12.50;99.90
29803;DHT22;16702;50.898;4.662;2022-11-15T10:58:01;12.50;99.90
29803;DHT22;16702;50.898;4.662;2022-11-15T11:00:34;12.50;99.90
29803;DHT22;16702;50.898;4.662;2022-11-15T11:03:27;12.60;99.90
29803;DHT22;16702;50.898;4.662;2022-11-15T11:06:06;12.60;99.90
29803;DHT22;16702;50.898;4.662;2022-11-15T11:08:37;12.50;99.90
29803;DHT22;16702;50.898;4.662;2022-11-15T11:11:08;12.60;99.90
29803;DHT22;16702;50.898;4.662;2022-11-15T11:13:39;12.60;99.90
29803;DHT22;16702;50.898;4.662;2022-11-15T11:16:34;12.60;99.90
29803;DHT22;16702;50.898;4.662;2022-11-15T11:22:18;12.60;99.90
29803;DHT22;16702;50.898;4.662;2022-11-15T11:24:56;12.60;99.90
29803;DHT22;16702;50.898;4.662;2022-11-15T11:27:39;12.60;99.90
29803;DHT22;16702;50.898;4.662;2022-11-15T11:30:14;12.70;99.90
29803;DHT22;16702;50.898;4.662;2022-11-15T11:35:59;12.70;99.90
29803;DHT22;16702;50.898;4.662;2022-11-15T11:38:44;12.80;99.90
29803;DHT22;16702;50.898;4.662;2022-11-15T11:41:30;12.80;99.90
29803;DHT22;16702;50.898;4.662;2022-11-15T11:44:16;12.80;99.90
29803;DHT22;16702;50.898;4.662;2022-11-15T11:46:55;12.80;99.90
29803;DHT22;16702;50.898;4.662;2022-11-15T11:49:32;12.90;99.90
29803;DHT22;16702;50.898;4.662;2022-11-15T11:52:11;12.90;99.90
29803;DHT22;16702;50.898;4.662;2022-11-15T11:54:53;12.90;99.90
29803;DHT22;16702;50.898;4.662;2022-11-15T11:57:32;12.90;99.90
29803;DHT22;16702;50.898;4.662;2022-11-15T12:00:12;12.90;99.90
29803;DHT22;16702;50.898;4.662;2022-11-15T12:02:48;12.90;99.90
29803;DHT22;16702;50.898;4.662;2022-11-15T12:05:25;12.90;99.90
29803;DHT22;16702;50.898;4.662;2022-11-15T12:08:03;13.00;99.90
29803;DHT22;16702;50.898;4.662;2022-11-15T12:10:35;13.00;99.90
29803;DHT22;16702;50.898;4.662;2022-11-15T12:13:10;13.00;99.90
29803;DHT22;16702;50.898;4.662;2022-11-15T12:15:42;13.00;99.90
29803;DHT22;16702;50.898;4.662;2022-11-15T12:18:15;13.00;99.90
29803;DHT22;16702;50.898;4.662;2022-11-15T12:20:52;13.00;99.90
29803;DHT22;16702;50.898;4.662;2022-11-15T12:23:30;13.10;99.90
29803;DHT22;16702;50.898;4.662;2022-11-15T12:26:05;13.10;99.90
29803;DHT22;16702;50.898;4.662;2022-11-15T12:28:40;13.10;99.90
29803;DHT22;16702;50.898;4.662;2022-11-15T12:31:36;13.10;99.90
29803;DHT22;16702;50.898;4.662;2022-11-15T12:34:29;13.10;99.90
29803;DHT22;16702;50.898;4.662;2022-11-15T12:40:34;13.10;99.90
29803;DHT22;16702;50.898;4.662;2022-11-15T12:46:18;13.10;99.90
29803;DHT22;16702;50.898;4.662;2022-11-15T12:48:50;13.10;99.90
29803;DHT22;16702;50.898;4.662;2022-11-15T12:57:35;13.20;99.90
29803;DHT22;16702;50.898;4.662;2022-11-15T13:03:21;13.20;99.90
29803;DHT22;16702;50.898;4.662;2022-11-15T13:06:09;13.20;99.90
29803;DHT22;16702;50.898;4.662;2022-11-15T13:08:43;13.30;99.90
29803;DHT22;16702;50.898;4.662;2022-11-15T13:14:50;13.30;99.90
29803;DHT22;16702;50.898;4.662;2022-11-15T13:17:27;13.40;99.90
29803;DHT22;16702;50.898;4.662;2022-11-15T13:23:01;13.40;99.90
29803;DHT22;16702;50.898;4.662;2022-11-15T13:26:05;13.40;99.90
29803;DHT22;16702;50.898;4.662;2022-11-15T13:28:41;13.40;99.90
29803;DHT22;16702;50.898;4.662;2022-11-15T13:31:25;13.50;99.90
29803;DHT22;16702;50.898;4.662;2022-11-15T13:33:59;13.50;99.90
29803;DHT22;16702;50.898;4.662;2022-11-15T13:36:50;13.50;99.90
29803;DHT22;16702;50.898;4.662;2022-11-15T13:39:28;13.40;99.90
29803;DHT22;16702;50.898;4.662;2022-11-15T13:41:59;13.40;99.90
29803;DHT22;16702;50.898;4.662;2022-11-15T13:44:31;13.40;99.90
29803;DHT22;16702;50.898;4.662;2022-11-15T13:47:06;13.40;99.90
29803;DHT22;16702;50.898;4.662;2022-11-15T13:49:40;13.50;99.90
29803;DHT22;16702;50.898;4.662;2022-11-15T13:52:14;13.50;99.90
29803;DHT22;16702;50.898;4.662;2022-11-15T13:54:47;13.50;99.90
29803;DHT22;16702;50.898;4.662;2022-11-15T13:57:22;13.50;99.90
29803;DHT22;16702;50.898;4.662;2022-11-15T13:59:55;13.50;99.90
29803;DHT22;16702;50.898;4.662;2022-11-15T14:02:40;13.40;99.90
29803;DHT22;16702;50.898;4.662;2022-11-15T14:05:16;13.50;99.90
29803;DHT22;16702;50.898;4.662;2022-11-15T14:07:53;13.60;99.90
29803;DHT22;16702;50.898;4.662;2022-11-15T14:10:32;13.50;99.90
29803;DHT22;16702;50.898;4.662;2022-11-15T14:13:09;13.60;99.90
29803;DHT22;16702;50.898;4.662;2022-11-15T14:15:40;13.60;99.90
29803;DHT22;16702;50.898;4.662;2022-11-15T14:18:40;13.60;99.90
29803;DHT22;16702;50.898;4.662;2022-11-15T14:21:11;13.60;99.90
29803;DHT22;16702;50.898;4.662;2022-11-15T14:23:42;13.60;99.90
29803;DHT22;16702;50.898;4.662;2022-11-15T14:26:29;13.60;99.90
29803;DHT22;16702;50.898;4.662;2022-11-15T14:29:24;13.60;99.90
29803;DHT22;16702;50.898;4.662;2022-11-15T14:32:10;13.60;99.90
29803;DHT22;16702;50.898;4.662;2022-11-15T14:34:44;13.60;99.90
29803;DHT22;16702;50.898;4.662;2022-11-15T14:37:23;13.50;99.90
29803;DHT22;16702;50.898;4.662;2022-11-15T14:39:54;13.50;99.90
29803;DHT22;16702;50.898;4.662;2022-11-15T14:42:25;13.50;99.90
29803;DHT22;16702;50.898;4.662;2022-11-15T14:44:55;13.50;99.90
29803;DHT22;16702;50.898;4.662;2022-11-15T14:47:25;13.50;99.90
29803;DHT22;16702;50.898;4.662;2022-11-15T14:49:59;13.40;99.90
29803;DHT22;16702;50.898;4.662;2022-11-15T14:52:30;13.50;99.90
29803;DHT22;16702;50.898;4.662;2022-11-15T14:55:10;13.50;99.90
29803;DHT22;16702;50.898;4.662;2022-11-15T14:57:41;13.50;99.90
29803;DHT22;16702;50.898;4.662;2022-11-15T15:00:13;13.50;99.90
29803;DHT22;16702;50.898;4.662;2022-11-15T15:02:45;13.50;99.90
29803;DHT22;16702;50.898;4.662;2022-11-15T15:05:20;13.50;99.90
29803;DHT22;16702;50.898;4.662;2022-11-15T15:07:51;13.40;99.90
29803;DHT22;16702;50.898;4.662;2022-11-15T15:10:22;13.50;99.90
29803;DHT22;16702;50.898;4.662;2022-11-15T15:13:16;13.40;99.90
29803;DHT22;16702;50.898;4.662;2022-11-15T15:15:47;13.50;99.90
29803;DHT22;16702;50.898;4.662;2022-11-15T15:18:18;13.50;99.90
29803;DHT22;16702;50.898;4.662;2022-11-15T15:20:55;13.40;99.90
29803;DHT22;16702;50.898;4.662;2022-11-15T15:23:27;13.30;99.90
29803;DHT22;16702;50.898;4.662;2022-11-15T15:25:58;13.40;99.90
29803;DHT22;16702;50.898;4.662;2022-11-15T15:28:29;13.40;99.90
29803;DHT22;16702;50.898;4.662;2022-11-15T15:31:01;13.40;99.90
29803;DHT22;16702;50.898;4.662;2022-11-15T15:33:32;13.40;99.90
29803;DHT22;16702;50.898;4.662;2022-11-15T15:36:07;13.50;99.90
29803;DHT22;16702;50.898;4.662;2022-11-15T15:38:39;13.50;99.90
29803;DHT22;16702;50.898;4.662;2022-11-15T15:41:11;13.40;99.90
29803;DHT22;16702;50.898;4.662;2022-11-15T15:43:41;13.30;99.90
29803;DHT22;16702;50.898;4.662;2022-11-15T15:46:14;13.30;99.90
29803;DHT22;16702;50.898;4.662;2022-11-15T15:48:45;13.30;99.90
29803;DHT22;16702;50.898;4.662;2022-11-15T15:51:18;13.30;99.90
29803;DHT22;16702;50.898;4.662;2022-11-15T15:53:48;13.30;99.90
29803;DHT22;16702;50.898;4.662;2022-11-15T15:56:24;13.30;99.90
29803;DHT22;16702;50.898;4.662;2022-11-15T15:58:55;13.30;99.90
29803;DHT22;16702;50.898;4.662;2022-11-15T16:01:25;13.30;99.90
29803;DHT22;16702;50.898;4.662;2022-11-15T16:03:56;13.30;99.90
29803;DHT22;16702;50.898;4.662;2022-11-15T16:06:35;13.30;99.90
29803;DHT22;16702;50.898;4.662;2022-11-15T16:09:08;13.30;99.90
29803;DHT22;16702;50.898;4.662;2022-11-15T16:11:44;13.20;99.90
29803;DHT22;16702;50.898;4.662;2022-11-15T16:14:15;13.30;99.90
29803;DHT22;16702;50.898;4.662;2022-11-15T16:16:45;13.30;99.90
29803;DHT22;16702;50.898;4.662;2022-11-15T16:19:16;13.30;99.90
29803;DHT22;16702;50.898;4.662;2022-11-15T16:21:49;13.20;99.90
29803;DHT22;16702;50.898;4.662;2022-11-15T16:24:20;13.30;99.90
29803;DHT22;16702;50.898;4.662;2022-11-15T16:26:50;13.20;99.90
29803;DHT22;16702;50.898;4.662;2022-11-15T16:29:21;13.20;99.90
29803;DHT22;16702;50.898;4.662;2022-11-15T16:31:52;13.20;99.90
29803;DHT22;16702;50.898;4.662;2022-11-15T16:34:23;13.30;99.90
29803;DHT22;16702;50.898;4.662;2022-11-15T16:37:01;13.20;99.90
29803;DHT22;16702;50.898;4.662;2022-11-15T16:39:32;13.20;99.90
29803;DHT22;16702;50.898;4.662;2022-11-15T16:42:02;13.20;99.90
29803;DHT22;16702;50.898;4.662;2022-11-15T16:44:33;13.20;99.90
29803;DHT22;16702;50.898;4.662;2022-11-15T16:47:03;13.20;99.90
29803;DHT22;16702;50.898;4.662;2022-11-15T16:49:34;13.30;99.90
29803;DHT22;16702;50.898;4.662;2022-11-15T16:52:07;13.20;99.90
29803;DHT22;16702;50.898;4.662;2022-11-15T16:54:37;13.20;99.90
29803;DHT22;16702;50.898;4.662;2022-11-15T16:57:08;13.20;99.90
29803;DHT22;16702;50.898;4.662;2022-11-15T16:59:39;13.30;99.90
29803;DHT22;16702;50.898;4.662;2022-11-15T17:02:11;13.30;99.90
29803;DHT22;16702;50.898;4.662;2022-11-15T17:04:42;13.30;99.90
29803;DHT22;16702;50.898;4.662;2022-11-15T17:07:14;13.30;99.90
29803;DHT22;16702;50.898;4.662;2022-11-15T17:09:45;13.20;99.90
29803;DHT22;16702;50.898;4.662;2022-11-15T17:12:15;13.30;99.90
29803;DHT22;16702;50.898;4.662;2022-11-15T17:14:45;13.30;99.90
29803;DHT22;16702;50.898;4.662;2022-11-15T17:17:16;13.30;99.90
29803;DHT22;16702;50.898;4.662;2022-11-15T17:19:47;13.30;99.90
29803;DHT22;16702;50.898;4.662;2022-11-15T17:22:20;13.40;99.90
29803;DHT22;16702;50.898;4.662;2022-11-15T17:24:50;13.30;99.90
29803;DHT22;16702;50.898;4.662;2022-11-15T17:27:20;13.30;99.90
29803;DHT22;16702;50.898;4.662;2022-11-15T17:29:51;13.40;99.90
29803;DHT22;16702;50.898;4.662;2022-11-15T17:32:21;13.30;99.90
29803;DHT22;16702;50.898;4.662;2022-11-15T17:34:51;13.40;99.90
29803;DHT22;16702;50.898;4.662;2022-11-15T17:37:24;13.40;99.90
29803;DHT22;16702;50.898;4.662;2022-11-15T17:39:54;13.30;99.90
29803;DHT22;16702;50.898;4.662;2022-11-15T17:42:25;13.30;99.90
29803;DHT22;16702;50.898;4.662;2022-11-15T17:44:55;13.40;99.90
29803;DHT22;16702;50.898;4.662;2022-11-15T17:47:28;13.40;99.90
29803;DHT22;16702;50.898;4.662;2022-11-15T17:49:59;13.40;99.90